createdAt,value
2018-05-12T00:02:10.015Z,16.23
2018-05-12T00:04:37.514Z,12.83
2018-05-12T00:07:05.047Z,11.50
2018-05-12T00:09:32.584Z,11.67
2018-05-12T00:12:00.111Z,10.70
2018-05-12T00:14:27.664Z,10.57
2018-05-12T00:16:55.224Z,12.23
2018-05-12T00:19:22.704Z,20.47
2018-05-12T00:21:50.226Z,10.20
2018-05-12T00:24:17.966Z,10.80
2018-05-12T00:26:45.983Z,11.13
2018-05-12T00:29:13.545Z,15.73
2018-05-12T00:31:41.849Z,12.07
2018-05-12T00:34:10.132Z,21.33
2018-05-12T00:36:37.627Z,15.50
2018-05-12T00:39:05.907Z,13.43
2018-05-12T00:41:33.519Z,12.90
2018-05-12T00:44:00.991Z,12.83
2018-05-12T00:46:29.259Z,11.30
2018-05-12T00:48:56.808Z,11.40
2018-05-12T00:51:24.292Z,10.00
2018-05-12T00:53:51.824Z,11.73
2018-05-12T00:56:19.349Z,13.17
2018-05-12T00:58:47.645Z,11.57
2018-05-12T01:01:15.926Z,12.87
2018-05-12T01:03:43.520Z,11.50
2018-05-12T01:06:11.829Z,12.03
2018-05-12T01:08:40.115Z,11.30
2018-05-12T01:11:07.643Z,11.73
2018-05-12T01:13:35.164Z,11.30
2018-05-12T01:16:02.753Z,10.67
2018-05-12T01:18:30.294Z,13.73
2018-05-12T01:20:58.578Z,10.77
2018-05-12T01:23:26.875Z,11.90
2018-05-12T01:25:54.420Z,14.77
2018-05-12T01:28:21.913Z,12.83
2018-05-12T01:30:49.436Z,13.07
2018-05-12T01:33:17.727Z,14.70
2018-05-12T01:35:46.075Z,11.43
2018-05-12T01:38:13.627Z,10.67
2018-05-12T01:40:41.911Z,10.27
2018-05-12T01:43:09.396Z,8.47
2018-05-12T01:45:36.969Z,10.80
2018-05-12T01:48:05.539Z,11.07
2018-05-12T01:50:33.075Z,10.57
2018-05-12T01:53:00.635Z,10.50
2018-05-12T01:55:28.164Z,10.27
2018-05-12T01:57:56.493Z,12.70
2018-05-12T02:00:23.999Z,12.80
2018-05-12T02:02:51.495Z,14.20
2018-05-12T02:05:19.036Z,12.80
2018-05-12T02:07:47.348Z,13.00
2018-05-12T02:10:15.739Z,10.83
2018-05-12T02:12:44.099Z,12.40
2018-05-12T02:15:11.624Z,15.87
2018-05-12T02:17:39.145Z,10.73
2018-05-12T02:20:06.644Z,15.83
2018-05-12T02:22:34.215Z,14.13
2018-05-12T02:25:01.720Z,14.10
2018-05-12T02:27:29.257Z,12.23
2018-05-12T02:29:57.547Z,14.47
2018-05-12T02:32:25.085Z,13.17
2018-05-12T02:34:52.611Z,13.07
2018-05-12T02:37:20.139Z,15.17
2018-05-12T02:39:47.653Z,22.57
2018-05-12T02:42:15.978Z,13.73
2018-05-12T02:44:43.478Z,14.37
2018-05-12T02:47:11.791Z,15.10
2018-05-12T02:49:40.089Z,18.10
2018-05-12T02:52:08.378Z,13.53
2018-05-12T02:54:35.908Z,18.27
2018-05-12T02:57:03.467Z,17.17
2018-05-12T02:59:31.790Z,16.77
2018-05-12T03:01:59.300Z,14.90
2018-05-12T03:04:26.848Z,15.93
2018-05-12T03:06:54.400Z,15.23
2018-05-12T03:09:21.953Z,14.83
2018-05-12T03:11:49.465Z,16.77
2018-05-12T03:14:17.746Z,16.33
2018-05-12T03:16:45.322Z,16.13
2018-05-12T03:19:12.938Z,15.13
2018-05-12T03:21:41.256Z,17.27
2018-05-12T03:24:09.536Z,17.20
2018-05-12T03:26:37.056Z,15.70
2018-05-12T03:29:04.563Z,19.47
2018-05-12T03:31:32.100Z,20.60
2018-05-12T03:34:00.408Z,19.47
2018-05-12T03:36:28.695Z,18.47
2018-05-12T03:38:56.216Z,18.10
2018-05-12T03:41:23.715Z,19.13
2018-05-12T03:43:51.210Z,14.83
2018-05-12T03:46:18.774Z,21.93
2018-05-12T03:48:46.327Z,19.23
2018-05-12T03:51:13.892Z,20.67
2018-05-12T03:53:42.195Z,19.70
2018-05-12T03:56:11.045Z,21.37
2018-05-12T03:58:39.439Z,21.90
2018-05-12T04:01:06.889Z,19.10
2018-05-12T04:03:34.416Z,24.90
2018-05-12T04:06:14.721Z,15.87
2018-05-12T04:08:54.179Z,21.83
2018-05-12T04:11:34.485Z,17.97
2018-05-12T04:14:02.024Z,18.03
2018-05-12T04:16:29.532Z,16.00
2018-05-12T04:18:57.852Z,18.80
2018-05-12T04:21:25.385Z,17.40
2018-05-12T04:23:52.882Z,17.37
2018-05-12T04:26:20.433Z,16.63
2018-05-12T04:28:48.755Z,18.20
2018-05-12T04:31:16.307Z,13.63
2018-05-12T04:33:43.830Z,16.33
2018-05-12T04:36:11.380Z,19.13
2018-05-12T04:38:39.655Z,16.57
2018-05-12T04:41:07.174Z,16.80
2018-05-12T04:43:34.711Z,15.77
2018-05-12T04:46:02.240Z,18.40
2018-05-12T04:48:29.767Z,17.63
2018-05-12T04:50:57.320Z,17.00
2018-05-12T04:53:25.343Z,18.90
2018-05-12T04:55:52.858Z,18.90
2018-05-12T04:58:22.350Z,19.67
2018-05-12T05:00:49.911Z,21.80
2018-05-12T05:03:17.458Z,17.60
2018-05-12T05:05:45.781Z,17.00
2018-05-12T05:08:13.370Z,17.80
2018-05-12T05:10:40.899Z,18.27
2018-05-12T05:13:08.434Z,17.87
2018-05-12T05:15:35.939Z,21.10
2018-05-12T05:18:03.459Z,15.13
2018-05-12T05:20:30.982Z,16.50
2018-05-12T05:22:59.293Z,18.37
2018-05-12T05:25:26.812Z,16.27
2018-05-12T05:27:54.347Z,15.93
2018-05-12T05:30:22.624Z,17.07
2018-05-12T05:32:50.141Z,16.67
2018-05-12T05:35:18.550Z,17.80
2018-05-12T05:37:46.105Z,21.00
2018-05-12T05:40:13.640Z,20.30
2018-05-12T05:42:41.159Z,19.00
2018-05-12T05:45:08.719Z,20.80
2018-05-12T05:47:36.257Z,18.43
2018-05-12T05:50:04.558Z,16.43
2018-05-12T05:52:32.862Z,18.13
2018-05-12T05:55:00.390Z,19.20
2018-05-12T05:57:28.656Z,20.43
2018-05-12T05:59:56.958Z,18.67
2018-05-12T06:02:25.241Z,18.83
2018-05-12T06:04:52.763Z,19.00
2018-05-12T06:07:20.270Z,25.27
2018-05-12T06:09:48.585Z,18.70
2018-05-12T06:12:17.423Z,21.80
2018-05-12T06:14:45.042Z,24.80
2018-05-12T06:17:12.553Z,17.63
2018-05-12T06:19:40.100Z,20.83
2018-05-12T06:22:07.664Z,19.40
2018-05-12T06:24:35.162Z,17.27
2018-05-12T06:27:03.504Z,23.00
2018-05-12T06:29:31.001Z,18.73
2018-05-12T06:31:58.593Z,19.80
2018-05-12T06:34:26.887Z,21.57
2018-05-12T06:36:54.448Z,18.40
2018-05-12T06:39:22.068Z,18.50
2018-05-12T06:41:49.591Z,21.93
2018-05-12T06:44:17.111Z,20.90
2018-05-12T06:46:44.728Z,16.93
2018-05-12T06:49:12.267Z,19.73
2018-05-12T06:51:40.540Z,16.03
2018-05-12T06:54:08.040Z,19.87
2018-05-12T06:56:35.635Z,16.73
2018-05-12T06:59:03.229Z,17.17
2018-05-12T07:01:30.843Z,20.30
2018-05-12T07:03:59.713Z,17.63
2018-05-12T07:06:28.119Z,17.30
2018-05-12T07:08:56.422Z,18.23
2018-05-12T07:11:23.935Z,17.23
2018-05-12T07:13:51.438Z,21.37
2018-05-12T07:16:19.911Z,19.93
2018-05-12T07:18:47.571Z,16.13
2018-05-12T07:21:15.963Z,18.77
2018-05-12T07:23:46.477Z,19.53
2018-05-12T07:26:14.024Z,19.73
2018-05-12T07:28:41.528Z,18.17
2018-05-12T07:31:09.192Z,16.07
2018-05-12T07:33:36.745Z,17.37
2018-05-12T07:36:04.275Z,17.17
2018-05-12T07:38:32.627Z,15.27
2018-05-12T07:41:00.212Z,26.97
2018-05-12T07:43:27.743Z,18.87
2018-05-12T07:45:55.247Z,20.10
2018-05-12T07:48:22.783Z,15.03
2018-05-12T07:50:50.576Z,16.27
2018-05-12T07:53:18.184Z,14.13
2018-05-12T07:55:45.767Z,18.57
2018-05-12T07:58:14.276Z,17.63
2018-05-12T08:00:41.810Z,16.83
2018-05-12T08:03:10.086Z,18.43
2018-05-12T08:05:37.639Z,21.40
2018-05-12T08:08:05.937Z,14.83
2018-05-12T08:10:33.532Z,14.97
2018-05-12T08:13:01.146Z,15.30
2018-05-12T08:15:29.237Z,14.73
2018-05-12T08:17:56.784Z,14.47
2018-05-12T08:22:58.260Z,18.87
2018-05-12T08:25:25.763Z,15.50
2018-05-12T08:27:53.349Z,21.50
2018-05-12T08:30:20.882Z,17.87
2018-05-12T08:32:51.211Z,16.27
2018-05-12T08:35:18.791Z,16.60
2018-05-12T08:37:46.368Z,15.47
2018-05-12T08:40:14.609Z,15.53
2018-05-12T08:42:42.118Z,18.83
2018-05-12T08:45:09.700Z,16.50
2018-05-12T08:47:37.238Z,15.27
2018-05-12T08:50:04.818Z,17.80
2018-05-12T08:52:32.324Z,15.17
2018-05-12T08:54:59.936Z,13.80
2018-05-12T08:57:27.471Z,18.03
2018-05-12T08:59:55.762Z,16.93
2018-05-12T09:02:24.054Z,14.17
2018-05-12T09:04:52.366Z,12.80
2018-05-12T09:07:19.972Z,14.43
2018-05-12T09:09:47.884Z,14.13
2018-05-12T09:12:15.569Z,12.17
2018-05-12T09:14:43.356Z,11.00
2018-05-12T09:17:10.884Z,11.60
2018-05-12T09:19:38.412Z,12.17
2018-05-12T09:22:05.952Z,14.57
2018-05-12T09:24:33.486Z,11.47
2018-05-12T09:27:00.974Z,15.53
2018-05-12T09:29:28.684Z,24.17
2018-05-12T09:31:56.178Z,15.57
2018-05-12T09:34:23.680Z,11.17
2018-05-12T09:36:51.305Z,11.10
2018-05-12T09:39:18.836Z,13.87
2018-05-12T09:41:47.218Z,15.83
2018-05-12T09:44:15.645Z,10.60
2018-05-12T09:46:43.273Z,11.43
2018-05-12T09:49:10.794Z,11.63
2018-05-12T09:51:38.294Z,10.80
2018-05-12T09:54:05.798Z,10.53
2018-05-12T09:56:34.083Z,10.90
2018-05-12T09:59:03.066Z,13.40
2018-05-12T10:01:31.360Z,14.27
2018-05-12T10:03:58.880Z,14.10
2018-05-12T10:06:27.827Z,15.17
2018-05-12T10:08:55.339Z,9.43
2018-05-12T10:11:22.884Z,16.33
2018-05-12T10:13:51.293Z,16.67
2018-05-12T10:16:19.670Z,16.63
2018-05-12T10:18:47.490Z,12.50
2018-05-12T10:21:15.811Z,12.90
2018-05-12T10:23:43.978Z,14.80
2018-05-12T10:26:11.575Z,10.57
2018-05-12T10:28:38.975Z,11.80
2018-05-12T10:31:06.467Z,10.63
2018-05-12T10:33:33.977Z,14.20
2018-05-12T10:36:02.246Z,10.20
2018-05-12T10:38:29.731Z,10.53
2018-05-12T10:40:58.016Z,9.47
2018-05-12T10:43:25.972Z,31.97
2018-05-12T10:45:53.540Z,10.40
2018-05-12T10:48:21.066Z,9.90
2018-05-12T10:50:48.568Z,16.90
2018-05-12T10:53:16.164Z,11.93
2018-05-12T10:55:43.789Z,8.57
2018-05-12T10:58:11.391Z,13.30
2018-05-12T11:00:39.672Z,8.47
2018-05-12T11:03:07.158Z,5.07
2018-05-12T11:05:34.671Z,4.63
2018-05-12T11:08:02.223Z,5.60
2018-05-12T11:10:29.707Z,5.57
2018-05-12T11:12:57.214Z,6.87
2018-05-12T11:15:24.713Z,4.83
2018-05-12T11:17:53.056Z,5.23
2018-05-12T11:20:20.682Z,5.07
2018-05-12T11:22:48.195Z,4.13
2018-05-12T11:25:15.800Z,6.60
2018-05-12T11:27:43.435Z,7.37
2018-05-12T11:30:10.880Z,7.37
2018-05-12T11:32:38.422Z,5.00
2018-05-12T11:35:06.708Z,4.70
2018-05-12T11:37:34.268Z,4.20
2018-05-12T11:40:01.836Z,6.13
2018-05-12T11:42:29.347Z,4.60
2018-05-12T11:44:56.875Z,4.93
2018-05-12T11:47:24.541Z,5.17
2018-05-12T11:49:52.855Z,7.07
2018-05-12T11:52:21.204Z,6.83
2018-05-12T11:54:48.771Z,4.70
2018-05-12T11:57:16.424Z,4.33
2018-05-12T11:59:44.838Z,5.77
2018-05-12T12:02:12.362Z,3.57
2018-05-12T12:04:40.797Z,5.10
2018-05-12T12:07:08.299Z,4.17
2018-05-12T12:09:35.923Z,4.53
2018-05-12T12:12:03.464Z,3.67
2018-05-12T12:14:31.041Z,3.67
2018-05-12T12:16:58.531Z,4.30
2018-05-12T12:19:26.061Z,4.10
2018-05-12T12:21:54.370Z,4.20
2018-05-12T12:24:21.924Z,4.17
2018-05-12T12:26:49.524Z,3.07
2018-05-12T12:29:17.938Z,3.57
2018-05-12T12:31:45.496Z,2.70
2018-05-12T12:34:14.376Z,3.30
2018-05-12T12:36:41.980Z,6.20
2018-05-12T12:39:09.480Z,3.63
2018-05-12T12:41:36.975Z,3.53
2018-05-12T12:44:04.506Z,3.73
2018-05-12T12:46:32.028Z,7.60
2018-05-12T12:48:59.531Z,5.30
2018-05-12T12:51:27.096Z,6.83
2018-05-12T12:53:54.587Z,4.43
2018-05-12T12:56:22.096Z,3.13
2018-05-12T12:58:49.604Z,5.77
2018-05-12T13:01:18.905Z,4.23
2018-05-12T13:03:48.240Z,3.33
2018-05-12T13:06:16.993Z,3.77
2018-05-12T13:08:44.604Z,3.47
2018-05-12T13:11:12.124Z,4.50
2018-05-12T13:13:39.624Z,3.00
2018-05-12T13:16:07.952Z,3.97
2018-05-12T13:18:35.486Z,6.23
2018-05-12T13:21:03.127Z,3.87
2018-05-12T13:23:30.683Z,3.00
2018-05-12T13:26:02.747Z,3.50
2018-05-12T13:28:30.272Z,4.00
2018-05-12T13:30:57.866Z,4.33
2018-05-12T13:33:25.613Z,6.47
2018-05-12T13:35:53.408Z,9.07
2018-05-12T13:38:21.051Z,2.90
2018-05-12T13:40:48.877Z,4.00
2018-05-12T13:43:17.173Z,5.60
2018-05-12T13:45:44.665Z,3.37
2018-05-12T13:48:12.336Z,4.07
2018-05-12T13:50:39.792Z,7.27
2018-05-12T13:53:07.266Z,4.40
2018-05-12T13:55:34.840Z,11.30
2018-05-12T13:58:03.143Z,4.23
2018-05-12T14:00:30.610Z,6.63
2018-05-12T14:02:58.854Z,3.17
2018-05-12T14:05:26.326Z,5.43
2018-05-12T14:07:53.798Z,2.90
2018-05-12T14:10:21.261Z,3.00
2018-05-12T14:12:49.596Z,3.30
2018-05-12T14:15:17.301Z,3.53
2018-05-12T14:17:46.646Z,3.20
2018-05-12T14:20:14.624Z,3.43
2018-05-12T14:22:42.111Z,5.57
2018-05-12T14:25:09.570Z,3.40
2018-05-12T14:27:37.049Z,3.17
2018-05-12T14:30:04.546Z,3.30
2018-05-12T14:32:32.027Z,3.57
2018-05-12T14:34:59.489Z,4.20
2018-05-12T14:37:26.953Z,4.80
2018-05-12T14:39:55.250Z,3.40
2018-05-12T14:42:22.714Z,3.07
2018-05-12T14:44:50.291Z,3.87
2018-05-12T14:47:17.858Z,3.50
2018-05-12T14:49:45.422Z,3.27
2018-05-12T14:52:13.207Z,6.83
2018-05-12T14:54:40.695Z,2.97
2018-05-12T14:57:08.161Z,3.00
2018-05-12T14:59:35.666Z,4.33
2018-05-12T15:02:03.136Z,2.83
2018-05-12T15:04:30.659Z,3.00
2018-05-12T15:06:59.029Z,4.57
2018-05-12T15:09:26.414Z,4.03
2018-05-12T15:11:53.888Z,2.67
2018-05-12T15:14:21.362Z,3.10
2018-05-12T15:16:48.979Z,4.60
2018-05-12T15:19:16.649Z,2.70
2018-05-12T15:21:44.203Z,2.70
2018-05-12T15:24:11.693Z,2.73
2018-05-12T15:26:39.931Z,2.80
2018-05-12T15:29:07.493Z,3.50
2018-05-12T15:31:35.774Z,2.80
2018-05-12T15:34:03.289Z,3.17
2018-05-12T15:36:30.767Z,4.67
2018-05-12T15:38:58.243Z,5.43
2018-05-12T15:41:25.726Z,2.90
2018-05-12T15:43:53.254Z,3.00
2018-05-12T15:46:20.778Z,3.17
2018-05-12T15:48:48.294Z,2.93
2018-05-12T15:51:16.603Z,2.87
2018-05-12T15:53:44.258Z,2.93
2018-05-12T15:56:11.779Z,3.30
2018-05-12T15:58:39.248Z,3.13
2018-05-12T16:01:07.542Z,3.07
2018-05-12T16:03:35.816Z,3.43
2018-05-12T16:06:04.134Z,3.27
2018-05-12T16:08:32.377Z,3.10
2018-05-12T16:10:59.864Z,2.50
2018-05-12T16:13:27.332Z,3.27
2018-05-12T16:15:54.811Z,4.70
2018-05-12T16:18:22.274Z,3.43
2018-05-12T16:20:50.674Z,4.30
2018-05-12T16:23:18.401Z,2.80
2018-05-12T16:25:46.802Z,2.57
2018-05-12T16:28:15.400Z,3.77
2018-05-12T16:30:42.970Z,2.87
2018-05-12T16:33:10.571Z,4.03
2018-05-12T16:35:38.045Z,3.30
2018-05-12T16:38:05.523Z,3.80
2018-05-12T16:40:33.011Z,3.00
2018-05-12T16:43:00.482Z,5.20
2018-05-12T16:45:27.948Z,4.50
2018-05-12T16:47:55.479Z,3.87
2018-05-12T16:50:23.124Z,4.00
2018-05-12T16:52:50.735Z,3.13
2018-05-12T16:55:18.605Z,3.17
2018-05-12T16:57:46.186Z,2.73
2018-05-12T17:00:13.917Z,2.30
2018-05-12T17:02:41.459Z,3.03
2018-05-12T17:05:08.934Z,3.10
2018-05-12T17:07:36.411Z,6.80
2018-05-12T17:10:04.651Z,4.50
2018-05-12T17:12:32.153Z,3.43
2018-05-12T17:14:59.599Z,4.57
2018-05-12T17:17:27.086Z,4.63
2018-05-12T17:19:54.627Z,3.80
2018-05-12T17:22:22.208Z,4.67
2018-05-12T17:24:49.763Z,4.63
2018-05-12T17:27:18.106Z,5.00
2018-05-12T17:29:45.976Z,7.93
2018-05-12T17:32:14.720Z,4.87
2018-05-12T17:34:42.222Z,8.77
2018-05-12T17:37:11.002Z,10.53
2018-05-12T17:39:38.507Z,7.03
2018-05-12T17:42:05.980Z,4.53
2018-05-12T17:44:33.456Z,4.47
2018-05-12T17:47:00.934Z,4.93
2018-05-12T17:49:28.403Z,6.27
2018-05-12T17:51:55.947Z,4.27
2018-05-12T17:54:23.666Z,5.40
2018-05-12T17:56:53.770Z,4.63
2018-05-12T17:59:21.482Z,13.57
2018-05-12T18:01:50.768Z,9.27
2018-05-12T18:04:18.536Z,6.27
2018-05-12T18:06:47.698Z,7.13
2018-05-12T18:09:15.877Z,4.67
2018-05-12T18:11:43.550Z,4.03
2018-05-12T18:14:11.076Z,4.57
2018-05-12T18:16:38.626Z,4.77
2018-05-12T18:19:06.431Z,4.40
2018-05-12T18:21:33.949Z,4.87
2018-05-12T18:24:02.298Z,11.43
2018-05-12T18:26:29.761Z,3.73
2018-05-12T18:28:58.002Z,5.80
2018-05-12T18:31:25.530Z,7.00
2018-05-12T18:33:53.251Z,4.87
2018-05-12T18:36:21.507Z,4.93
2018-05-12T18:38:49.020Z,4.03
2018-05-12T18:41:16.598Z,14.07
2018-05-12T18:43:45.140Z,4.40
2018-05-12T18:46:12.759Z,5.00
2018-05-12T18:48:40.342Z,4.73
2018-05-12T18:51:08.635Z,6.60
2018-05-12T18:53:36.151Z,4.90
2018-05-12T18:56:03.664Z,11.13
2018-05-12T18:58:31.180Z,5.87
2018-05-12T19:00:58.822Z,4.40
2018-05-12T19:03:26.327Z,6.17
2018-05-12T19:05:55.724Z,5.20
2018-05-12T19:08:23.327Z,4.80
2018-05-12T19:10:50.862Z,4.87
2018-05-12T19:13:18.506Z,4.70
2018-05-12T19:15:46.206Z,18.83
2018-05-12T19:18:14.612Z,11.03
2018-05-12T19:20:42.270Z,45.60
2018-05-12T19:23:09.802Z,15.23
2018-05-12T19:25:37.568Z,6.27
2018-05-12T19:28:05.090Z,9.03
2018-05-12T19:30:32.599Z,8.50
2018-05-12T19:33:00.655Z,7.13
2018-05-12T19:35:28.156Z,17.30
2018-05-12T19:37:56.432Z,8.37
2018-05-12T19:40:24.052Z,12.07
2018-05-12T19:42:52.329Z,11.83
2018-05-12T19:45:19.920Z,14.90
2018-05-12T19:47:53.280Z,8.20
2018-05-12T19:50:21.280Z,5.70
2018-05-12T19:52:48.901Z,6.47
2018-05-12T19:55:16.844Z,11.27
2018-05-12T19:57:44.593Z,6.23
2018-05-12T20:00:13.343Z,5.70
2018-05-12T20:02:44.402Z,4.90
2018-05-12T20:05:12.088Z,5.10
2018-05-12T20:07:40.716Z,5.20
2018-05-12T20:10:12.194Z,5.63
2018-05-12T20:12:39.742Z,6.63
2018-05-12T20:15:14.800Z,5.73
2018-05-12T20:17:44.257Z,6.17
2018-05-12T20:20:11.843Z,6.87
2018-05-12T20:22:39.391Z,7.37
2018-05-12T20:25:06.928Z,12.10
2018-05-12T20:27:34.495Z,7.73
2018-05-12T20:30:02.029Z,9.70
2018-05-12T20:32:30.378Z,11.10
2018-05-12T20:35:08.595Z,6.37
2018-05-12T20:37:36.300Z,6.73
2018-05-12T20:40:03.735Z,4.97
2018-05-12T20:42:31.255Z,7.37
2018-05-12T20:44:59.543Z,6.77
2018-05-12T20:47:27.048Z,4.47
2018-05-12T20:49:58.300Z,7.73
2018-05-12T20:52:25.828Z,7.40
2018-05-12T20:54:53.859Z,5.97
2018-05-12T20:57:21.431Z,8.77
2018-05-12T20:59:49.075Z,7.37
2018-05-12T21:02:16.764Z,6.57
2018-05-12T21:04:44.386Z,5.17
2018-05-12T21:07:12.612Z,7.00
2018-05-12T21:09:40.142Z,5.87
2018-05-12T21:12:07.728Z,6.73
2018-05-12T21:14:36.474Z,4.73
2018-05-12T21:17:03.992Z,4.70
2018-05-12T21:19:33.245Z,6.10
2018-05-12T21:22:01.543Z,8.60
2018-05-12T21:24:29.081Z,7.20
2018-05-12T21:26:57.383Z,5.77
2018-05-12T21:29:24.879Z,5.90
2018-05-12T21:31:52.452Z,8.30
2018-05-12T21:34:19.981Z,6.70
2018-05-12T21:36:47.587Z,6.30
2018-05-12T21:39:15.390Z,8.40
2018-05-12T21:41:44.209Z,7.73
2018-05-12T21:44:11.719Z,6.63
2018-05-12T21:46:39.204Z,7.70
2018-05-12T21:49:06.761Z,6.70
2018-05-12T21:51:34.504Z,6.23
2018-05-12T21:54:02.802Z,7.03
2018-05-12T21:56:30.331Z,7.37
2018-05-12T21:58:58.614Z,7.30
2018-05-12T22:01:26.100Z,7.17
2018-05-12T22:03:55.468Z,9.23
2018-05-12T22:06:23.167Z,7.03
2018-05-12T22:08:50.655Z,7.97
2018-05-12T22:11:18.283Z,7.30
2018-05-12T22:13:46.076Z,10.57
2018-05-12T22:16:13.753Z,7.83
2018-05-12T22:18:41.342Z,7.47
2018-05-12T22:21:08.835Z,8.40
2018-05-12T22:23:37.115Z,9.30
2018-05-12T22:26:04.703Z,7.80
2018-05-12T22:28:32.212Z,7.00
2018-05-12T22:30:59.733Z,7.37
2018-05-12T22:33:27.257Z,6.97
2018-05-12T22:35:54.800Z,8.57
2018-05-12T22:38:22.317Z,7.47
2018-05-12T22:40:49.921Z,8.93
2018-05-12T22:43:17.508Z,9.53
2018-05-12T22:45:45.071Z,7.70
2018-05-12T22:48:12.592Z,11.17
2018-05-12T22:50:40.895Z,8.93
2018-05-12T22:53:08.423Z,13.60
2018-05-12T22:55:35.976Z,8.17
2018-05-12T22:58:03.500Z,8.00
2018-05-12T23:00:31.804Z,14.03
2018-05-12T23:02:59.306Z,9.13
2018-05-12T23:05:26.835Z,10.70
2018-05-12T23:07:54.347Z,9.57
2018-05-12T23:10:21.868Z,9.20
2018-05-12T23:12:49.443Z,9.30
2018-05-12T23:15:17.032Z,8.50
2018-05-12T23:17:44.719Z,7.83
2018-05-12T23:20:13.158Z,10.03
2018-05-12T23:22:47.758Z,10.63
2018-05-12T23:25:15.355Z,9.17
2018-05-12T23:27:42.954Z,11.60
2018-05-12T23:30:10.485Z,7.90
2018-05-12T23:32:37.999Z,7.87
2018-05-12T23:35:05.584Z,9.87
2018-05-12T23:37:33.179Z,9.33
2018-05-12T23:40:00.711Z,9.00
2018-05-12T23:42:28.292Z,9.17
2018-05-12T23:44:56.565Z,9.37
2018-05-12T23:47:24.091Z,10.70
2018-05-12T23:49:51.616Z,9.23
2018-05-12T23:52:20.004Z,9.83
2018-05-12T23:54:48.363Z,8.80
2018-05-12T23:57:15.987Z,8.70
2018-05-12T23:59:43.857Z,9.30
